createdAt,value
2023-05-10T00:00:35.990Z,92.36
2023-05-10T00:01:36.036Z,91.86
2023-05-10T00:02:36.044Z,92.02
2023-05-10T00:03:36.037Z,92.06
2023-05-10T00:04:35.951Z,91.86
2023-05-10T00:05:35.946Z,91.86
2023-05-10T00:06:35.940Z,91.96
2023-05-10T00:07:35.946Z,91.61
2023-05-10T00:08:35.920Z,91.20
2023-05-10T00:09:35.908Z,92.26
2023-05-10T00:10:35.902Z,91.20
2023-05-10T00:11:35.901Z,91.82
2023-05-10T00:12:35.886Z,90.91
2023-05-10T00:13:35.880Z,90.91
2023-05-10T00:14:35.862Z,90.75
2023-05-10T00:15:35.841Z,91.39
2023-05-10T00:16:35.879Z,92.16
2023-05-10T00:17:35.887Z,92.16
2023-05-10T00:18:35.818Z,92.16
2023-05-10T00:19:35.809Z,92.36
2023-05-10T00:20:35.788Z,92.67
2023-05-10T00:21:35.801Z,92.36
2023-05-10T00:22:35.797Z,92.67
2023-05-10T00:23:35.764Z,92.77
2023-05-10T00:24:35.757Z,92.47
2023-05-10T00:25:35.755Z,92.57
2023-05-10T00:26:35.754Z,92.06
2023-05-10T00:27:35.748Z,92.16
2023-05-10T00:28:35.718Z,91.75
2023-05-10T00:29:35.725Z,92.16
2023-05-10T00:30:35.694Z,92.12
2023-05-10T00:31:35.730Z,92.16
2023-05-10T00:32:35.695Z,91.66
2023-05-10T00:33:35.660Z,91.61
2023-05-10T00:34:35.653Z,91.66
2023-05-10T00:35:35.660Z,92.06
2023-05-10T00:36:35.663Z,91.86
2023-05-10T00:37:35.635Z,92.12
2023-05-10T00:38:35.628Z,92.16
2023-05-10T00:39:35.613Z,91.71
2023-05-10T00:40:35.607Z,91.82
2023-05-10T00:41:35.601Z,91.82
2023-05-10T00:42:35.577Z,91.71
2023-05-10T00:43:35.570Z,92.12
2023-05-10T00:44:35.559Z,91.82
2023-05-10T00:45:35.555Z,91.66
2023-05-10T00:46:35.609Z,92.02
2023-05-10T00:47:35.560Z,91.61
2023-05-10T00:48:35.522Z,92.22
2023-05-10T00:49:35.517Z,91.92
2023-05-10T00:50:35.509Z,92.41
2023-05-10T00:51:35.494Z,92.71
2023-05-10T00:52:35.478Z,93.02
2023-05-10T00:53:35.463Z,93.18
2023-05-10T00:54:35.472Z,93.62
2023-05-10T00:55:35.442Z,93.58
2023-05-10T00:56:35.437Z,93.48
2023-05-10T00:57:35.436Z,93.68
2023-05-10T00:58:35.425Z,92.97
2023-05-10T00:59:35.413Z,93.58
2023-05-10T01:00:35.399Z,93.38
2023-05-10T01:01:35.420Z,92.77
2023-05-10T01:02:35.418Z,93.58
2023-05-10T01:03:35.416Z,93.99
2023-05-10T01:04:35.431Z,93.88
2023-05-10T01:05:35.343Z,94.84
2023-05-10T01:06:35.326Z,94.98
2023-05-10T01:07:35.326Z,95.59
2023-05-10T01:08:35.323Z,95.64
2023-05-10T01:09:35.301Z,96.70
2023-05-10T01:10:35.290Z,97.36
2023-05-10T01:11:35.278Z,98.52
2023-05-10T01:12:35.324Z,98.07
2023-05-10T01:13:35.273Z,98.77
2023-05-10T01:14:36.248Z,99.13
2023-05-10T01:15:35.273Z,99.04
2023-05-10T01:16:35.266Z,98.99
2023-05-10T01:17:35.249Z,98.28
2023-05-10T01:18:35.224Z,98.68
2023-05-10T01:19:35.198Z,97.97
2023-05-10T01:20:35.195Z,99.29
2023-05-10T01:21:35.190Z,98.07
2023-05-10T01:22:35.182Z,97.97
2023-05-10T01:23:35.163Z,99.04
2023-05-10T01:24:35.153Z,99.79
2023-05-10T01:25:35.138Z,99.99
2023-05-10T01:26:35.139Z,99.99
2023-05-10T01:27:35.130Z,99.99
2023-05-10T01:28:35.129Z,99.99
2023-05-10T01:29:35.106Z,99.99
2023-05-10T01:30:35.101Z,99.99
2023-05-10T01:31:35.123Z,99.99
2023-05-10T01:32:35.114Z,99.99
2023-05-10T01:33:35.069Z,99.99
2023-05-10T01:34:35.057Z,99.99
2023-05-10T01:35:35.042Z,99.99
2023-05-10T01:36:36.047Z,99.74
2023-05-10T01:37:35.024Z,99.64
2023-05-10T01:38:35.006Z,99.85
2023-05-10T01:39:34.994Z,99.85
2023-05-10T01:40:34.993Z,99.60
2023-05-10T01:41:34.999Z,99.29
2023-05-10T01:42:34.972Z,99.08
2023-05-10T01:43:34.962Z,99.29
2023-05-10T01:44:34.949Z,98.58
2023-05-10T01:45:34.972Z,98.88
2023-05-10T01:46:34.950Z,98.58
2023-05-10T01:47:34.967Z,98.38
2023-05-10T01:48:34.916Z,98.38
2023-05-10T01:49:34.900Z,98.79
2023-05-10T01:50:34.906Z,97.97
2023-05-10T01:51:34.882Z,97.67
2023-05-10T01:52:34.871Z,98.48
2023-05-10T01:53:34.861Z,97.97
2023-05-10T01:54:34.854Z,98.58
2023-05-10T01:55:34.856Z,98.18
2023-05-10T01:56:34.836Z,98.38
2023-05-10T01:57:34.827Z,98.18
2023-05-10T01:58:34.819Z,98.07
2023-05-10T01:59:34.818Z,98.38
2023-05-10T02:00:34.818Z,98.38
2023-05-10T02:01:34.780Z,99.24
2023-05-10T02:02:34.784Z,98.18
2023-05-10T02:03:34.821Z,98.38
2023-05-10T02:04:34.765Z,98.79
2023-05-10T02:05:34.739Z,97.97
2023-05-10T02:06:34.733Z,97.87
2023-05-10T02:07:34.719Z,98.68
2023-05-10T02:08:34.727Z,97.97
2023-05-10T02:09:34.705Z,98.79
2023-05-10T02:10:34.695Z,97.77
2023-05-10T02:11:34.681Z,98.02
2023-05-10T02:12:34.670Z,98.93
2023-05-10T02:13:34.671Z,98.83
2023-05-10T02:14:34.673Z,97.51
2023-05-10T02:15:34.662Z,98.58
2023-05-10T02:16:34.664Z,97.67
2023-05-10T02:17:34.650Z,97.36
2023-05-10T02:18:34.625Z,97.06
2023-05-10T02:19:34.600Z,97.56
2023-05-10T02:20:34.604Z,97.36
2023-05-10T02:21:34.581Z,97.77
2023-05-10T02:22:34.573Z,97.67
2023-05-10T02:23:34.571Z,97.36
2023-05-10T02:24:34.549Z,97.36
2023-05-10T02:25:34.537Z,97.47
2023-05-10T02:26:34.526Z,97.67
2023-05-10T02:27:34.534Z,97.71
2023-05-10T02:28:34.526Z,97.97
2023-05-10T02:29:34.527Z,98.83
2023-05-10T02:30:34.513Z,98.48
2023-05-10T02:31:34.599Z,97.97
2023-05-10T02:32:34.493Z,98.02
2023-05-10T02:33:34.484Z,97.87
2023-05-10T02:34:34.445Z,98.48
2023-05-10T02:35:34.451Z,98.52
2023-05-10T02:36:34.470Z,98.58
2023-05-10T02:37:34.441Z,98.83
2023-05-10T02:38:34.412Z,98.18
2023-05-10T02:39:34.393Z,98.48
2023-05-10T02:40:34.418Z,98.43
2023-05-10T02:41:34.399Z,97.87
2023-05-10T02:42:34.372Z,98.07
2023-05-10T02:43:34.357Z,98.22
2023-05-10T02:44:34.352Z,98.83
2023-05-10T02:45:34.348Z,99.28
2023-05-10T02:46:34.369Z,99.38
2023-05-10T02:47:34.357Z,98.97
2023-05-10T02:48:34.312Z,99.28
2023-05-10T02:49:34.305Z,98.68
2023-05-10T02:50:34.311Z,99.28
2023-05-10T02:51:34.297Z,99.08
2023-05-10T02:52:34.267Z,98.77
2023-05-10T02:53:34.281Z,99.18
2023-05-10T02:54:34.258Z,99.28
2023-05-10T02:55:34.255Z,99.28
2023-05-10T02:56:34.252Z,99.28
2023-05-10T02:57:34.227Z,98.97
2023-05-10T02:58:34.220Z,98.93
2023-05-10T02:59:34.211Z,98.93
2023-05-10T03:00:34.215Z,98.57
2023-05-10T03:01:34.279Z,98.22
2023-05-10T03:02:34.215Z,97.81
2023-05-10T03:03:34.173Z,98.63
2023-05-10T03:04:34.220Z,97.81
2023-05-10T03:05:34.162Z,97.51
2023-05-10T03:06:34.141Z,97.41
2023-05-10T03:07:34.142Z,97.71
2023-05-10T03:08:34.124Z,96.50
2023-05-10T03:09:34.121Z,96.39
2023-05-10T03:10:34.150Z,96.23
2023-05-10T03:11:34.091Z,96.03
2023-05-10T03:12:34.080Z,95.73
2023-05-10T03:13:34.124Z,95.73
2023-05-10T03:14:34.078Z,95.94
2023-05-10T03:15:34.054Z,95.83
2023-05-10T03:16:34.089Z,95.94
2023-05-10T03:17:34.058Z,95.68
2023-05-10T03:18:34.029Z,95.28
2023-05-10T03:19:34.027Z,95.89
2023-05-10T03:20:35.001Z,95.38
2023-05-10T03:21:33.997Z,95.38
2023-05-10T03:22:33.978Z,95.58
2023-05-10T03:23:33.977Z,95.79
2023-05-10T03:24:33.958Z,95.74
2023-05-10T03:25:33.953Z,95.68
2023-05-10T03:26:33.953Z,94.93
2023-05-10T03:27:33.943Z,95.07
2023-05-10T03:28:33.926Z,94.46
2023-05-10T03:29:33.915Z,94.57
2023-05-10T03:30:33.900Z,94.37
2023-05-10T03:31:33.961Z,94.57
2023-05-10T03:32:33.920Z,94.87
2023-05-10T03:33:33.886Z,95.02
2023-05-10T03:34:33.861Z,95.12
2023-05-10T03:35:33.844Z,95.58
2023-05-10T03:36:33.833Z,95.18
2023-05-10T03:37:33.835Z,94.67
2023-05-10T03:38:33.810Z,95.02
2023-05-10T03:39:33.800Z,95.42
2023-05-10T03:40:33.793Z,95.02
2023-05-10T03:41:33.786Z,95.57
2023-05-10T03:42:33.789Z,95.98
2023-05-10T03:43:33.760Z,96.08
2023-05-10T03:44:33.760Z,96.12
2023-05-10T03:45:33.743Z,96.23
2023-05-10T03:46:33.786Z,96.73
2023-05-10T03:47:33.765Z,97.24
2023-05-10T03:48:33.714Z,96.78
2023-05-10T03:49:33.706Z,97.84
2023-05-10T03:50:33.689Z,99.06
2023-05-10T03:51:33.678Z,98.86
2023-05-10T03:52:33.660Z,98.86
2023-05-10T03:53:33.676Z,99.31
2023-05-10T03:54:33.642Z,99.01
2023-05-10T03:55:33.633Z,99.82
2023-05-10T03:56:33.664Z,99.72
2023-05-10T03:57:33.615Z,99.31
2023-05-10T03:58:33.602Z,99.77
2023-05-10T03:59:33.599Z,99.57
2023-05-10T04:00:33.601Z,99.67
2023-05-10T04:01:33.624Z,99.88
2023-05-10T04:02:33.615Z,99.37
2023-05-10T04:03:33.590Z,99.27
2023-05-10T04:04:33.540Z,98.96
2023-05-10T04:05:33.548Z,99.02
2023-05-10T04:06:33.552Z,98.86
2023-05-10T04:07:33.514Z,98.96
2023-05-10T04:08:33.507Z,98.75
2023-05-10T04:09:33.495Z,98.55
2023-05-10T04:10:33.494Z,98.81
2023-05-10T04:11:33.498Z,98.20
2023-05-10T04:12:33.458Z,98.50
2023-05-10T04:13:33.461Z,98.61
2023-05-10T04:14:33.459Z,98.16
2023-05-10T04:15:33.441Z,98.10
2023-05-10T04:16:33.439Z,98.16
2023-05-10T04:17:33.441Z,97.85
2023-05-10T04:18:33.426Z,97.96
2023-05-10T04:19:33.396Z,97.85
2023-05-10T04:20:33.382Z,96.94
2023-05-10T04:21:33.368Z,97.44
2023-05-10T04:22:33.361Z,97.14
2023-05-10T04:23:33.346Z,97.24
2023-05-10T04:24:33.359Z,96.99
2023-05-10T04:25:33.329Z,97.30
2023-05-10T04:26:33.338Z,96.89
2023-05-10T04:27:33.351Z,96.23
2023-05-10T04:28:33.320Z,95.82
2023-05-10T04:29:33.303Z,96.59
2023-05-10T04:30:33.316Z,96.28
2023-05-10T04:31:33.267Z,96.48
2023-05-10T04:32:33.261Z,96.33
2023-05-10T04:33:33.266Z,95.92
2023-05-10T04:34:33.237Z,96.12
2023-05-10T04:35:33.229Z,95.72
2023-05-10T04:36:33.213Z,95.87
2023-05-10T04:37:34.229Z,95.72
2023-05-10T04:38:33.210Z,95.98
2023-05-10T04:39:33.201Z,95.92
2023-05-10T04:40:33.174Z,96.43
2023-05-10T04:41:33.173Z,95.82
2023-05-10T04:42:33.170Z,95.92
2023-05-10T04:43:33.167Z,95.78
2023-05-10T04:44:33.146Z,95.87
2023-05-10T04:45:33.129Z,95.78
2023-05-10T04:46:33.171Z,95.17
2023-05-10T04:47:33.142Z,95.78
2023-05-10T04:48:33.120Z,95.47
2023-05-10T04:49:33.094Z,95.57
2023-05-10T04:50:33.109Z,95.87
2023-05-10T04:51:33.076Z,94.86
2023-05-10T04:52:33.101Z,95.06
2023-05-10T04:53:33.057Z,95.17
2023-05-10T04:54:33.044Z,95.26
2023-05-10T04:55:33.031Z,94.35
2023-05-10T04:56:33.055Z,94.56
2023-05-10T04:57:33.030Z,93.54
2023-05-10T04:58:32.998Z,94.50
2023-05-10T04:59:32.991Z,94.35
2023-05-10T05:00:32.980Z,94.96
2023-05-10T05:01:33.018Z,94.76
2023-05-10T05:02:33.048Z,94.15
2023-05-10T05:03:33.001Z,94.35
2023-05-10T05:04:32.946Z,94.15
2023-05-10T05:05:32.929Z,94.56
2023-05-10T05:06:32.936Z,95.17
2023-05-10T05:07:32.915Z,94.96
2023-05-10T05:08:32.909Z,94.21
2023-05-10T05:09:32.894Z,94.35
2023-05-10T05:10:32.985Z,94.51
2023-05-10T05:11:32.889Z,94.31
2023-05-10T05:12:32.863Z,94.31
2023-05-10T05:13:32.857Z,94.21
2023-05-10T05:14:32.865Z,93.70
2023-05-10T05:15:32.844Z,93.49
2023-05-10T05:16:32.911Z,93.84
2023-05-10T05:17:32.821Z,94.35
2023-05-10T05:18:32.803Z,93.44
2023-05-10T05:19:32.801Z,92.93
2023-05-10T05:20:32.799Z,93.84
2023-05-10T05:21:32.783Z,93.84
2023-05-10T05:22:32.770Z,94.35
2023-05-10T05:23:32.752Z,94.15
2023-05-10T05:24:32.755Z,94.45
2023-05-10T05:25:32.756Z,94.35
2023-05-10T05:26:32.730Z,94.25
2023-05-10T05:27:32.724Z,94.31
2023-05-10T05:28:32.710Z,94.35
2023-05-10T05:29:32.705Z,93.70
2023-05-10T05:30:32.685Z,93.70
2023-05-10T05:31:32.727Z,93.60
2023-05-10T05:32:32.779Z,93.80
2023-05-10T05:33:32.659Z,93.84
2023-05-10T05:34:32.664Z,93.49
2023-05-10T05:35:32.658Z,94.41
2023-05-10T05:36:32.648Z,94.31
2023-05-10T05:37:32.619Z,94.10
2023-05-10T05:38:32.635Z,93.70
2023-05-10T05:39:32.609Z,93.70
2023-05-10T05:40:32.600Z,93.70
2023-05-10T05:41:32.585Z,93.60
2023-05-10T05:42:32.586Z,93.80
2023-05-10T05:43:32.592Z,94.21
2023-05-10T05:44:32.560Z,94.21
2023-05-10T05:45:32.580Z,94.10
2023-05-10T05:46:32.529Z,94.10
2023-05-10T05:47:32.533Z,94.10
2023-05-10T05:48:32.533Z,94.21
2023-05-10T05:49:32.500Z,94.31
2023-05-10T05:50:32.492Z,94.37
2023-05-10T05:51:32.484Z,93.65
2023-05-10T05:52:32.484Z,93.25
2023-05-10T05:53:32.468Z,93.35
2023-05-10T05:54:32.449Z,93.35
2023-05-10T05:55:32.458Z,92.94
2023-05-10T05:56:32.484Z,93.19
2023-05-10T05:57:32.450Z,93.05
2023-05-10T05:58:32.418Z,92.89
2023-05-10T05:59:32.401Z,93.29
2023-05-10T06:00:32.405Z,92.99
2023-05-10T06:01:32.387Z,93.29
2023-05-10T06:02:32.410Z,93.19
2023-05-10T06:03:32.412Z,93.25
2023-05-10T06:04:32.453Z,92.89
2023-05-10T06:05:32.375Z,93.40
2023-05-10T06:06:32.366Z,93.29
2023-05-10T06:07:32.347Z,93.29
2023-05-10T06:08:32.316Z,93.29
2023-05-10T06:09:32.310Z,93.35
2023-05-10T06:10:32.298Z,92.89
2023-05-10T06:11:32.296Z,93.09
2023-05-10T06:12:32.263Z,92.99
2023-05-10T06:13:33.491Z,93.29
2023-05-10T06:14:32.255Z,93.09
2023-05-10T06:15:32.276Z,93.19
2023-05-10T06:16:32.353Z,93.29
2023-05-10T06:17:32.378Z,93.90
2023-05-10T06:18:32.219Z,92.99
2023-05-10T06:19:32.207Z,93.40
2023-05-10T06:20:32.418Z,93.09
2023-05-10T06:21:32.203Z,93.09
2023-05-10T06:22:32.178Z,93.25
2023-05-10T06:23:32.192Z,92.84
2023-05-10T06:24:32.166Z,92.89
2023-05-10T06:25:32.159Z,92.84
2023-05-10T06:26:32.140Z,92.84
2023-05-10T06:27:33.128Z,93.05
2023-05-10T06:28:32.122Z,93.35
2023-05-10T06:29:32.128Z,92.84
2023-05-10T06:30:32.117Z,92.74
2023-05-10T06:31:32.104Z,92.79
2023-05-10T06:32:32.093Z,92.99
2023-05-10T06:33:32.071Z,92.84
2023-05-10T06:34:32.079Z,92.74
2023-05-10T06:35:32.056Z,92.64
2023-05-10T06:36:32.040Z,92.84
2023-05-10T06:37:32.035Z,92.74
2023-05-10T06:38:32.024Z,92.54
2023-05-10T06:39:32.033Z,92.49
2023-05-10T06:40:32.034Z,91.89
2023-05-10T06:41:32.085Z,92.40
2023-05-10T06:42:31.989Z,92.29
2023-05-10T06:43:31.981Z,92.29
2023-05-10T06:44:31.981Z,92.19
2023-05-10T06:45:31.965Z,91.89
2023-05-10T06:46:31.998Z,92.09
2023-05-10T06:47:31.964Z,91.74
2023-05-10T06:48:31.941Z,91.94
2023-05-10T06:49:31.929Z,91.74
2023-05-10T06:50:31.910Z,91.64
2023-05-10T06:51:31.898Z,91.85
2023-05-10T06:52:31.893Z,91.03
2023-05-10T06:53:31.916Z,91.74
2023-05-10T06:54:31.875Z,90.83
2023-05-10T06:55:31.864Z,90.53
2023-05-10T06:56:31.849Z,91.70
2023-05-10T06:57:32.327Z,91.74
2023-05-10T06:58:31.841Z,91.60
2023-05-10T06:59:31.952Z,91.34
2023-05-10T07:00:31.826Z,91.39
2023-05-10T07:01:31.818Z,91.50
2023-05-10T07:02:31.814Z,90.93
2023-05-10T07:03:31.798Z,91.54
2023-05-10T07:04:31.879Z,90.22
2023-05-10T07:05:31.809Z,90.73
2023-05-10T07:06:33.993Z,91.17
2023-05-10T07:07:32.778Z,90.67
2023-05-10T07:08:31.742Z,90.67
2023-05-10T07:09:31.716Z,91.08
2023-05-10T07:10:31.715Z,90.67
2023-05-10T07:11:31.703Z,90.02
2023-05-10T07:12:31.819Z,90.16
2023-05-10T07:13:31.727Z,90.06
2023-05-10T07:14:31.674Z,89.86
2023-05-10T07:15:31.676Z,90.16
2023-05-10T07:16:31.697Z,90.61
2023-05-10T07:17:31.904Z,91.73
2023-05-10T07:18:31.665Z,91.42
2023-05-10T07:19:31.632Z,91.08
2023-05-10T07:20:31.614Z,90.57
2023-05-10T07:21:31.660Z,89.76
2023-05-10T07:22:31.611Z,89.80
2023-05-10T07:23:31.587Z,90.75
2023-05-10T07:24:31.583Z,91.77
2023-05-10T07:25:31.578Z,92.63
2023-05-10T07:26:31.563Z,92.58
2023-05-10T07:27:31.529Z,92.58
2023-05-10T07:28:32.533Z,91.83
2023-05-10T07:29:31.523Z,92.03
2023-05-10T07:30:31.531Z,92.07
2023-05-10T07:31:31.542Z,92.07
2023-05-10T07:32:31.577Z,91.42
2023-05-10T07:33:31.481Z,91.47
2023-05-10T07:34:31.477Z,91.47
2023-05-10T07:35:31.473Z,90.92
2023-05-10T07:36:31.457Z,91.63
2023-05-10T07:37:31.462Z,90.81
2023-05-10T07:38:31.434Z,91.22
2023-05-10T07:39:31.419Z,90.57
2023-05-10T07:40:32.426Z,90.12
2023-05-10T07:41:31.413Z,90.22
2023-05-10T07:42:31.395Z,89.57
2023-05-10T07:43:31.385Z,89.17
2023-05-10T07:44:31.380Z,89.41
2023-05-10T07:45:31.387Z,90.02
2023-05-10T07:46:31.404Z,89.87
2023-05-10T07:47:31.351Z,89.67
2023-05-10T07:48:31.325Z,89.63
2023-05-10T07:49:31.334Z,89.12
2023-05-10T07:50:31.337Z,87.87
2023-05-10T07:51:31.299Z,86.96
2023-05-10T07:52:31.295Z,86.05
2023-05-10T07:53:31.281Z,85.03
2023-05-10T07:54:31.283Z,85.33
2023-05-10T07:55:31.261Z,86.45
2023-05-10T07:56:31.257Z,85.94
2023-05-10T07:57:31.247Z,86.96
2023-05-10T07:58:31.230Z,87.46
2023-05-10T07:59:31.236Z,86.25
2023-05-10T08:00:31.205Z,86.05
2023-05-10T08:01:31.199Z,85.74
2023-05-10T08:02:31.223Z,86.96
2023-05-10T08:03:31.243Z,87.52
2023-05-10T08:04:31.225Z,86.05
2023-05-10T08:05:33.527Z,87.46
2023-05-10T08:06:31.407Z,87.05
2023-05-10T08:07:31.153Z,87.05
2023-05-10T08:08:31.143Z,87.52
2023-05-10T08:09:31.117Z,85.64
2023-05-10T08:10:31.111Z,84.83
2023-05-10T08:11:31.414Z,85.24
2023-05-10T08:12:31.087Z,85.48
2023-05-10T08:13:31.094Z,85.33
2023-05-10T08:14:31.066Z,83.92
2023-05-10T08:15:31.070Z,84.63
2023-05-10T08:16:31.086Z,85.13
2023-05-10T08:17:31.080Z,84.28
2023-05-10T08:18:31.056Z,84.28
2023-05-10T08:19:31.018Z,84.22
2023-05-10T08:20:31.005Z,83.78
2023-05-10T08:21:30.995Z,85.10
2023-05-10T08:22:31.005Z,83.94
2023-05-10T08:23:30.993Z,83.84
2023-05-10T08:24:30.970Z,83.44
2023-05-10T08:25:30.958Z,84.45
2023-05-10T08:26:30.956Z,84.51
2023-05-10T08:27:30.941Z,85.42
2023-05-10T08:28:30.929Z,84.67
2023-05-10T08:29:38.646Z,84.06
2023-05-10T08:30:31.908Z,82.75
2023-05-10T08:31:31.001Z,82.89
2023-05-10T08:32:30.943Z,82.31
2023-05-10T08:33:30.889Z,81.44
2023-05-10T08:34:30.892Z,80.83
2023-05-10T08:35:30.857Z,80.22
2023-05-10T08:36:30.865Z,80.59
2023-05-10T08:37:30.850Z,80.69
2023-05-10T08:38:30.829Z,80.55
2023-05-10T08:39:31.037Z,80.55
2023-05-10T08:40:30.821Z,80.25
2023-05-10T08:41:30.805Z,80.76
2023-05-10T08:42:30.799Z,80.15
2023-05-10T08:43:30.898Z,80.05
2023-05-10T08:44:30.779Z,79.85
2023-05-10T08:45:30.792Z,80.11
2023-05-10T08:46:30.797Z,79.16
2023-05-10T08:47:30.764Z,79.67
2023-05-10T08:48:30.773Z,78.26
2023-05-10T08:49:30.720Z,78.56
2023-05-10T08:50:30.755Z,78.26
2023-05-10T08:51:30.697Z,78.76
2023-05-10T08:52:30.694Z,79.43
2023-05-10T08:53:30.686Z,78.46
2023-05-10T08:54:30.677Z,78.36
2023-05-10T08:55:30.673Z,79.87
2023-05-10T08:56:30.650Z,78.30
2023-05-10T08:57:30.639Z,77.59
2023-05-10T08:58:30.634Z,78.63
2023-05-10T08:59:30.640Z,78.33
2023-05-10T09:00:30.743Z,78.74
2023-05-10T09:01:30.647Z,80.65
2023-05-10T09:02:30.625Z,81.20
2023-05-10T09:03:30.587Z,82.57
2023-05-10T09:04:30.778Z,80.76
2023-05-10T09:05:30.586Z,79.54
2023-05-10T09:06:30.556Z,79.94
2023-05-10T09:07:30.559Z,78.94
2023-05-10T09:08:30.533Z,79.74
2023-05-10T09:09:30.535Z,79.41
2023-05-10T09:10:30.519Z,79.50
2023-05-10T09:11:30.504Z,79.30
2023-05-10T09:12:30.499Z,77.86
2023-05-10T09:13:30.499Z,77.86
2023-05-10T09:14:30.488Z,77.92
2023-05-10T09:15:30.497Z,78.02
2023-05-10T09:16:30.498Z,77.42
2023-05-10T09:17:30.519Z,76.75
2023-05-10T09:18:30.571Z,76.81
2023-05-10T09:19:30.434Z,76.64
2023-05-10T09:20:30.434Z,79.87
2023-05-10T09:21:30.411Z,78.86
2023-05-10T09:22:30.397Z,76.10
2023-05-10T09:23:30.403Z,76.51
2023-05-10T09:24:30.376Z,75.67
2023-05-10T09:25:30.393Z,74.62
2023-05-10T09:26:30.361Z,74.69
2023-05-10T09:27:30.373Z,74.32
2023-05-10T09:28:30.380Z,76.17
2023-05-10T09:29:30.339Z,76.57
2023-05-10T09:30:30.319Z,76.14
2023-05-10T09:31:30.585Z,74.32
2023-05-10T09:32:30.312Z,73.21
2023-05-10T09:33:30.301Z,73.14
2023-05-10T09:34:30.283Z,74.86
2023-05-10T09:35:30.315Z,75.23
2023-05-10T09:36:30.253Z,73.75
2023-05-10T09:37:30.253Z,75.90
2023-05-10T09:38:30.236Z,74.32
2023-05-10T09:39:30.227Z,75.43
2023-05-10T09:40:30.211Z,76.48
2023-05-10T09:41:30.214Z,76.98
2023-05-10T09:42:30.210Z,76.28
2023-05-10T09:43:30.192Z,76.38
2023-05-10T09:44:30.183Z,76.44
2023-05-10T09:45:30.170Z,76.54
2023-05-10T09:46:30.224Z,76.20
2023-05-10T09:47:30.153Z,76.40
2023-05-10T09:48:30.139Z,76.27
2023-05-10T09:49:30.139Z,75.36
2023-05-10T09:50:30.122Z,76.03
2023-05-10T09:51:30.123Z,74.73
2023-05-10T09:52:30.098Z,73.61
2023-05-10T09:53:30.100Z,73.08
2023-05-10T09:54:30.092Z,70.86
2023-05-10T09:55:30.085Z,72.77
2023-05-10T09:56:30.071Z,72.31
2023-05-10T09:57:30.053Z,72.47
2023-05-10T09:58:30.044Z,71.87
2023-05-10T09:59:30.057Z,73.28
2023-05-10T10:00:30.036Z,72.07
2023-05-10T10:01:30.065Z,73.28
2023-05-10T10:02:30.057Z,73.04
2023-05-10T10:03:30.424Z,68.28
2023-05-10T10:04:31.063Z,70.90
2023-05-10T10:05:29.987Z,72.27
2023-05-10T10:06:30.743Z,71.94
2023-05-10T10:07:30.966Z,72.14
2023-05-10T10:08:29.960Z,72.84
2023-05-10T10:09:29.966Z,71.16
2023-05-10T10:10:29.942Z,72.27
2023-05-10T10:11:29.915Z,72.94
2023-05-10T10:12:29.912Z,71.87
2023-05-10T10:13:29.895Z,71.97
2023-05-10T10:14:29.935Z,70.59
2023-05-10T10:15:29.883Z,70.03
2023-05-10T10:16:29.947Z,69.42
2023-05-10T10:17:29.908Z,70.12
2023-05-10T10:18:29.885Z,68.59
2023-05-10T10:19:29.868Z,67.81
2023-05-10T10:20:29.825Z,69.42
2023-05-10T10:21:29.819Z,68.98
2023-05-10T10:22:29.815Z,68.51
2023-05-10T10:23:29.823Z,67.68
2023-05-10T10:24:29.788Z,66.77
2023-05-10T10:25:29.782Z,67.41
2023-05-10T10:26:29.771Z,66.71
2023-05-10T10:27:29.768Z,66.28
2023-05-10T10:28:29.771Z,66.55
2023-05-10T10:29:29.736Z,65.67
2023-05-10T10:30:29.738Z,65.24
2023-05-10T10:31:29.756Z,64.47
2023-05-10T10:32:29.755Z,64.34
2023-05-10T10:33:29.782Z,64.27
2023-05-10T10:34:29.722Z,67.94
2023-05-10T10:35:29.710Z,69.45
2023-05-10T10:36:29.674Z,70.79
2023-05-10T10:37:29.681Z,69.12
2023-05-10T10:38:29.675Z,67.18
2023-05-10T10:39:29.646Z,63.37
2023-05-10T10:40:30.479Z,64.11
2023-05-10T10:41:29.633Z,66.15
2023-05-10T10:42:29.628Z,62.44
2023-05-10T10:43:29.611Z,60.74
2023-05-10T10:44:29.593Z,64.31
2023-05-10T10:45:29.586Z,63.14
2023-05-10T10:46:29.603Z,64.75
2023-05-10T10:47:29.589Z,64.51
2023-05-10T10:48:29.551Z,63.17
2023-05-10T10:49:29.540Z,65.85
2023-05-10T10:50:29.537Z,63.61
2023-05-10T10:51:29.534Z,62.38
2023-05-10T10:52:29.549Z,60.45
2023-05-10T10:53:29.540Z,60.72
2023-05-10T10:54:29.491Z,60.42
2023-05-10T10:55:29.484Z,62.25
2023-05-10T10:56:29.488Z,61.11
2023-05-10T10:57:29.462Z,62.61
2023-05-10T10:58:29.460Z,62.71
2023-05-10T10:59:29.467Z,61.48
2023-05-10T11:00:29.465Z,59.88
2023-05-10T11:01:29.551Z,61.95
2023-05-10T11:02:31.289Z,63.11
2023-05-10T11:03:29.402Z,61.65
2023-05-10T11:04:29.435Z,59.48
2023-05-10T11:05:29.448Z,60.38
2023-05-10T11:06:29.367Z,59.45
2023-05-10T11:07:29.359Z,61.68
2023-05-10T11:08:29.351Z,61.68
2023-05-10T11:09:29.340Z,60.98
2023-05-10T11:10:29.338Z,61.45
2023-05-10T11:11:29.336Z,61.02
2023-05-10T11:12:29.311Z,60.10
2023-05-10T11:13:29.298Z,59.42
2023-05-10T11:14:29.306Z,57.79
2023-05-10T11:15:29.293Z,58.15
2023-05-10T11:16:29.352Z,58.95
2023-05-10T11:17:29.313Z,58.11
2023-05-10T11:18:29.288Z,60.64
2023-05-10T11:19:29.271Z,63.37
2023-05-10T11:20:29.239Z,63.07
2023-05-10T11:21:29.232Z,63.47
2023-05-10T11:22:29.219Z,62.47
2023-05-10T11:23:29.206Z,62.24
2023-05-10T11:24:29.207Z,61.36
2023-05-10T11:25:29.220Z,62.87
2023-05-10T11:26:29.174Z,64.25
2023-05-10T11:27:29.172Z,64.15
2023-05-10T11:28:29.181Z,63.87
2023-05-10T11:29:29.198Z,63.67
2023-05-10T11:30:29.137Z,64.28
2023-05-10T11:31:29.197Z,63.67
2023-05-10T11:32:29.160Z,63.81
2023-05-10T11:33:29.145Z,65.18
2023-05-10T11:34:30.106Z,66.48
2023-05-10T11:35:29.089Z,65.84
2023-05-10T11:36:29.088Z,66.08
2023-05-10T11:37:29.072Z,64.97
2023-05-10T11:38:29.076Z,66.17
2023-05-10T11:39:29.051Z,66.38
2023-05-10T11:40:29.050Z,64.34
2023-05-10T11:41:29.035Z,64.81
2023-05-10T11:42:29.040Z,65.08
2023-05-10T11:43:29.033Z,65.65
2023-05-10T11:44:29.012Z,64.34
2023-05-10T11:45:28.998Z,66.05
2023-05-10T11:46:29.009Z,62.60
2023-05-10T11:47:29.023Z,64.54
2023-05-10T11:48:28.967Z,66.05
2023-05-10T11:49:28.960Z,66.55
2023-05-10T11:50:28.953Z,66.58
2023-05-10T11:51:28.979Z,66.78
2023-05-10T11:52:28.937Z,67.14
2023-05-10T11:53:28.921Z,65.04
2023-05-10T11:54:28.903Z,66.14
2023-05-10T11:55:28.895Z,66.58
2023-05-10T11:56:28.915Z,66.88
2023-05-10T11:57:28.886Z,66.47
2023-05-10T11:58:28.866Z,68.02
2023-05-10T11:59:28.856Z,68.92
2023-05-10T12:00:28.848Z,69.12
2023-05-10T12:01:28.880Z,69.35
2023-05-10T12:02:28.946Z,69.56
2023-05-10T12:03:28.930Z,71.47
2023-05-10T12:04:28.848Z,71.50
2023-05-10T12:05:28.800Z,72.00
2023-05-10T12:06:28.796Z,71.20
2023-05-10T12:07:28.785Z,70.32
2023-05-10T12:08:28.780Z,70.63
2023-05-10T12:09:42.784Z,70.53
2023-05-10T12:10:30.765Z,70.43
2023-05-10T12:11:28.745Z,71.67
2023-05-10T12:12:28.729Z,71.97
2023-05-10T12:13:28.719Z,71.60
2023-05-10T12:14:28.708Z,71.70
2023-05-10T12:15:28.709Z,71.40
2023-05-10T12:16:28.714Z,72.44
2023-05-10T12:17:28.717Z,72.78
2023-05-10T12:18:28.715Z,72.98
2023-05-10T12:19:28.661Z,74.49
2023-05-10T12:20:28.697Z,76.91
2023-05-10T12:21:28.644Z,78.32
2023-05-10T12:22:28.637Z,78.99
2023-05-10T12:23:28.635Z,80.64
2023-05-10T12:24:28.627Z,80.90
2023-05-10T12:25:28.627Z,81.61
2023-05-10T12:26:28.603Z,80.74
2023-05-10T12:27:28.596Z,80.94
2023-05-10T12:28:28.584Z,81.04
2023-05-10T12:29:28.576Z,81.04
2023-05-10T12:30:28.606Z,81.65
2023-05-10T12:31:28.558Z,81.35
2023-05-10T12:32:28.542Z,80.84
2023-05-10T12:33:28.524Z,81.15
2023-05-10T12:34:28.531Z,81.45
2023-05-10T12:35:28.509Z,81.95
2023-05-10T12:36:28.510Z,81.65
2023-05-10T12:37:28.494Z,82.25
2023-05-10T12:38:28.504Z,82.25
2023-05-10T12:39:28.479Z,82.45
2023-05-10T12:40:28.473Z,82.05
2023-05-10T12:41:28.452Z,81.65
2023-05-10T12:42:28.440Z,80.30
2023-05-10T12:43:28.455Z,80.20
2023-05-10T12:44:28.424Z,80.57
2023-05-10T12:45:28.415Z,81.37
2023-05-10T12:46:28.436Z,79.92
2023-05-10T12:47:28.405Z,79.38
2023-05-10T12:48:28.400Z,78.78
2023-05-10T12:49:28.376Z,79.48
2023-05-10T12:50:28.375Z,79.35
2023-05-10T12:51:28.355Z,79.14
2023-05-10T12:52:28.359Z,79.74